createdAt,value
2023-03-16T00:00:14.994Z,-0.72
2023-03-16T00:02:41.532Z,-0.77
2023-03-16T00:05:07.886Z,-0.86
2023-03-16T00:07:34.765Z,-0.81
2023-03-16T00:10:01.534Z,-0.79
2023-03-16T00:12:27.910Z,-0.81
2023-03-16T00:14:54.364Z,-0.81
2023-03-16T00:17:20.988Z,-0.78
2023-03-16T00:19:47.445Z,-0.76
2023-03-16T00:22:14.860Z,-0.82
2023-03-16T00:24:43.348Z,-0.86
2023-03-16T00:27:09.651Z,-0.96
2023-03-16T00:29:35.984Z,-0.89
2023-03-16T00:32:03.540Z,-0.94
2023-03-16T00:34:30.170Z,-1.03
2023-03-16T00:36:56.559Z,-1.01
2023-03-16T00:39:22.943Z,-1.04
2023-03-16T00:41:49.269Z,-0.99
2023-03-16T00:44:15.597Z,-1.06
2023-03-16T00:46:42.914Z,-1.04
2023-03-16T00:49:09.595Z,-1.11
2023-03-16T00:51:35.997Z,-1.11
2023-03-16T00:54:02.394Z,-1.12
2023-03-16T00:56:29.173Z,-1.16
2023-03-16T00:58:57.979Z,-1.02
2023-03-16T01:01:24.597Z,-1.05
2023-03-16T01:03:50.976Z,-1.15
2023-03-16T01:06:17.390Z,-1.12
2023-03-16T01:08:43.746Z,-1.17
2023-03-16T01:11:10.539Z,-1.18
2023-03-16T01:13:36.890Z,-1.15
2023-03-16T01:16:04.531Z,-1.18
2023-03-16T01:18:34.275Z,-1.21
2023-03-16T01:21:01.824Z,-1.21
2023-03-16T01:23:30.392Z,-1.22
2023-03-16T01:25:57.122Z,-1.23
2023-03-16T01:28:24.769Z,-1.24
2023-03-16T01:30:54.235Z,-1.25
2023-03-16T01:33:20.709Z,-1.19
2023-03-16T01:35:47.041Z,-1.31
2023-03-16T01:38:13.401Z,-1.35
2023-03-16T01:40:39.730Z,-1.35
2023-03-16T01:43:06.066Z,-1.37
2023-03-16T01:45:32.818Z,-1.39
2023-03-16T01:47:59.207Z,-1.48
2023-03-16T01:50:25.872Z,-1.45
2023-03-16T01:52:52.453Z,-1.50
2023-03-16T01:55:18.805Z,-1.53
2023-03-16T01:57:45.121Z,-1.55
2023-03-16T02:00:14.510Z,-1.53
2023-03-16T02:02:40.861Z,-1.51
2023-03-16T02:05:07.257Z,-1.57
2023-03-16T02:07:34.668Z,-1.61
2023-03-16T02:10:02.525Z,-1.53
2023-03-16T02:12:29.376Z,-1.51
2023-03-16T02:14:55.727Z,-1.45
2023-03-16T02:17:22.078Z,-1.41
2023-03-16T02:19:48.426Z,-1.44
2023-03-16T02:22:14.734Z,-1.45
2023-03-16T02:24:41.082Z,-1.48
2023-03-16T02:27:07.507Z,-1.65
2023-03-16T02:29:33.810Z,-1.62
2023-03-16T02:32:02.733Z,-1.71
2023-03-16T02:34:29.041Z,-1.61
2023-03-16T02:36:55.366Z,-1.56
2023-03-16T02:39:21.690Z,-1.66
2023-03-16T02:41:48.004Z,-1.65
2023-03-16T02:44:15.461Z,-1.62
2023-03-16T02:46:43.579Z,-1.62
2023-03-16T02:49:10.136Z,-1.61
2023-03-16T02:51:36.466Z,-1.65
2023-03-16T02:54:03.446Z,-1.69
2023-03-16T02:56:29.780Z,-1.69
2023-03-16T02:58:57.489Z,-1.69
2023-03-16T03:01:23.947Z,-1.67
2023-03-16T03:03:50.265Z,-1.77
2023-03-16T03:06:16.626Z,-1.81
2023-03-16T03:08:42.944Z,-1.74
2023-03-16T03:11:09.255Z,-1.67
2023-03-16T03:13:38.258Z,-1.77
2023-03-16T03:16:04.646Z,-1.76
2023-03-16T03:18:30.984Z,-1.89
2023-03-16T03:20:57.326Z,-1.77
2023-03-16T03:23:23.793Z,-1.91
2023-03-16T03:25:50.114Z,-1.81
2023-03-16T03:28:16.422Z,-1.83
2023-03-16T03:30:42.822Z,-1.72
2023-03-16T03:33:09.236Z,-1.87
2023-03-16T03:35:35.642Z,-1.78
2023-03-16T03:38:02.025Z,-1.81
2023-03-16T03:40:28.579Z,-1.80
2023-03-16T03:42:55.036Z,-1.70
2023-03-16T03:45:21.355Z,-1.67
2023-03-16T03:47:47.715Z,-1.69
2023-03-16T03:50:14.137Z,-1.72
2023-03-16T03:52:40.575Z,-1.64
2023-03-16T03:55:06.917Z,-1.59
2023-03-16T03:57:33.269Z,-1.66
2023-03-16T03:59:59.622Z,-1.70
2023-03-16T04:02:26.030Z,-1.67
2023-03-16T04:04:52.385Z,-1.67
2023-03-16T04:07:18.718Z,-1.80
2023-03-16T04:09:45.129Z,-1.81
2023-03-16T04:12:11.445Z,-1.83
2023-03-16T04:14:37.844Z,-1.79
2023-03-16T04:17:04.985Z,-1.79
2023-03-16T04:19:31.387Z,-1.86
2023-03-16T04:21:57.778Z,-1.83
2023-03-16T04:24:24.121Z,-1.83
2023-03-16T04:26:50.432Z,-1.90
2023-03-16T04:29:19.786Z,-1.96
2023-03-16T04:31:46.110Z,-1.84
2023-03-16T04:34:12.472Z,-1.87
2023-03-16T04:36:39.136Z,-1.94
2023-03-16T04:39:05.518Z,-1.97
2023-03-16T04:41:31.842Z,-2.02
2023-03-16T04:43:58.167Z,-1.99
2023-03-16T04:46:24.794Z,-2.03
2023-03-16T04:48:51.214Z,-2.00
2023-03-16T04:51:17.545Z,-2.07
2023-03-16T04:53:44.790Z,-2.07
2023-03-16T04:56:18.167Z,-2.08
2023-03-16T04:58:44.536Z,-2.08
2023-03-16T05:01:10.910Z,-2.06
2023-03-16T05:03:37.226Z,-2.12
2023-03-16T05:06:03.705Z,-2.11
2023-03-16T05:08:30.074Z,-2.14
2023-03-16T05:10:56.414Z,-2.20
2023-03-16T05:13:22.737Z,-2.24
2023-03-16T05:15:49.052Z,-2.25
2023-03-16T05:18:15.414Z,-2.16
2023-03-16T05:20:42.334Z,-2.16
2023-03-16T05:23:08.715Z,-2.11
2023-03-16T05:25:35.054Z,-2.08
2023-03-16T05:28:02.137Z,-2.00
2023-03-16T05:30:28.695Z,-1.98
2023-03-16T05:32:57.948Z,-2.05
2023-03-16T05:35:24.492Z,-2.06
2023-03-16T05:37:50.889Z,-2.03
2023-03-16T05:40:17.417Z,-2.04
2023-03-16T05:42:44.053Z,-1.98
2023-03-16T05:45:10.524Z,-1.91
2023-03-16T05:47:37.401Z,-1.75
2023-03-16T05:50:03.726Z,-1.65
2023-03-16T05:52:30.394Z,-1.65
2023-03-16T05:54:56.793Z,-1.53
2023-03-16T05:57:23.830Z,-1.61
2023-03-16T05:59:50.572Z,-1.42
2023-03-16T06:02:16.906Z,-1.26
2023-03-16T06:04:43.215Z,-1.22
2023-03-16T06:07:09.573Z,-1.19
2023-03-16T06:09:35.878Z,-1.24
2023-03-16T06:12:02.200Z,-1.06
2023-03-16T06:14:30.324Z,-0.95
2023-03-16T06:16:56.673Z,-0.88
2023-03-16T06:19:23.000Z,-0.90
2023-03-16T06:21:49.445Z,-0.77
2023-03-16T06:24:15.770Z,-0.57
2023-03-16T06:26:42.101Z,-0.50
2023-03-16T06:29:08.447Z,-0.51
2023-03-16T06:31:34.844Z,-0.33
2023-03-16T06:34:01.379Z,-0.21
2023-03-16T06:36:27.840Z,-0.02
2023-03-16T06:38:54.364Z,0.08
2023-03-16T06:41:21.305Z,0.10
2023-03-16T06:43:47.624Z,0.16
2023-03-16T06:46:13.984Z,0.25
2023-03-16T06:48:40.568Z,0.36
2023-03-16T06:51:07.804Z,0.38
2023-03-16T06:53:34.246Z,0.34
2023-03-16T06:56:01.320Z,0.54
2023-03-16T06:58:27.620Z,0.64
2023-03-16T07:00:54.059Z,0.61
2023-03-16T07:03:20.417Z,0.82
2023-03-16T07:05:46.731Z,0.82
2023-03-16T07:08:15.255Z,0.97
2023-03-16T07:10:42.287Z,1.05
2023-03-16T07:13:08.598Z,1.17
2023-03-16T07:15:34.931Z,1.50
2023-03-16T07:18:01.234Z,1.66
2023-03-16T07:20:30.519Z,1.81
2023-03-16T07:22:57.034Z,1.42
2023-03-16T07:25:23.354Z,1.34
2023-03-16T07:27:49.753Z,1.57
2023-03-16T07:30:16.100Z,1.85
2023-03-16T07:32:42.475Z,1.97
2023-03-16T07:35:08.851Z,1.92
2023-03-16T07:37:35.283Z,2.19
2023-03-16T07:40:01.605Z,2.22
2023-03-16T07:42:27.930Z,2.13
2023-03-16T07:44:54.350Z,2.55
2023-03-16T07:47:21.161Z,2.77
2023-03-16T07:49:47.517Z,3.10
2023-03-16T07:52:13.832Z,3.45
2023-03-16T07:54:40.591Z,3.50
2023-03-16T07:57:06.932Z,3.80
2023-03-16T07:59:33.238Z,3.73
2023-03-16T08:01:59.575Z,4.14
2023-03-16T08:04:26.032Z,4.23
2023-03-16T08:07:00.302Z,3.81
2023-03-16T08:09:26.816Z,3.32
2023-03-16T08:11:53.122Z,4.03
2023-03-16T08:14:19.487Z,4.52
2023-03-16T08:16:45.932Z,4.44
2023-03-16T08:19:13.179Z,4.23
2023-03-16T08:21:53.101Z,4.18
2023-03-16T08:24:25.768Z,4.82
2023-03-16T08:26:52.082Z,5.55
2023-03-16T08:29:19.038Z,5.69
2023-03-16T08:31:45.362Z,5.97
2023-03-16T08:34:11.702Z,5.85
2023-03-16T08:36:38.090Z,6.27
2023-03-16T08:39:07.562Z,6.16
2023-03-16T08:41:34.833Z,6.65
2023-03-16T08:44:02.090Z,6.70
2023-03-16T08:46:28.493Z,6.69
2023-03-16T08:48:56.018Z,6.32
2023-03-16T08:51:22.377Z,6.02
2023-03-16T08:53:48.700Z,6.63
2023-03-16T08:56:15.025Z,6.97
2023-03-16T08:58:45.352Z,7.26
2023-03-16T09:01:12.658Z,7.12
2023-03-16T09:03:38.975Z,7.03
2023-03-16T09:06:05.352Z,7.20
2023-03-16T09:08:31.643Z,6.76
2023-03-16T09:10:57.968Z,7.11
2023-03-16T09:13:24.623Z,7.60
2023-03-16T09:15:51.053Z,7.90
2023-03-16T09:18:19.206Z,7.37
2023-03-16T09:20:47.832Z,8.05
2023-03-16T09:23:14.229Z,8.46
2023-03-16T09:25:40.630Z,7.57
2023-03-16T09:28:07.004Z,7.65
2023-03-16T09:30:33.332Z,8.16
2023-03-16T09:32:59.738Z,7.63
2023-03-16T09:35:26.631Z,8.31
2023-03-16T09:38:05.643Z,8.35
2023-03-16T09:40:32.772Z,8.20
2023-03-16T09:42:59.591Z,7.75
2023-03-16T09:45:26.158Z,8.31
2023-03-16T09:47:52.490Z,7.99
2023-03-16T09:50:18.891Z,8.33
2023-03-16T09:52:45.221Z,8.86
2023-03-16T09:55:11.529Z,9.01
2023-03-16T09:57:39.760Z,9.08
2023-03-16T10:00:06.160Z,9.10
2023-03-16T10:02:32.515Z,9.14
2023-03-16T10:04:59.395Z,8.75
2023-03-16T10:07:26.521Z,8.91
2023-03-16T10:09:52.846Z,9.28
2023-03-16T10:12:19.732Z,9.06
2023-03-16T10:14:46.047Z,8.73
2023-03-16T10:17:12.391Z,8.68
2023-03-16T10:19:38.715Z,8.38
2023-03-16T10:22:05.462Z,8.30
2023-03-16T10:24:34.315Z,8.06
2023-03-16T10:27:00.725Z,8.55
2023-03-16T10:29:28.166Z,8.94
2023-03-16T10:31:54.532Z,9.17
2023-03-16T10:34:20.981Z,9.34
2023-03-16T10:36:47.938Z,8.67
2023-03-16T10:39:14.256Z,8.43
2023-03-16T10:41:41.175Z,8.11
2023-03-16T10:44:09.086Z,8.02
2023-03-16T10:46:35.503Z,8.98
2023-03-16T10:49:01.982Z,9.18
2023-03-16T10:51:28.405Z,9.37
2023-03-16T10:53:54.720Z,8.74
2023-03-16T10:56:21.098Z,9.35
2023-03-16T10:58:47.431Z,9.49
2023-03-16T11:01:14.019Z,9.75
2023-03-16T11:03:41.339Z,9.26
2023-03-16T11:06:07.741Z,9.87
2023-03-16T11:08:34.232Z,9.73
2023-03-16T11:11:01.160Z,9.39
2023-03-16T11:13:27.491Z,9.96
2023-03-16T11:15:54.080Z,10.55
2023-03-16T11:18:20.399Z,10.53
2023-03-16T11:20:47.322Z,9.51
2023-03-16T11:23:13.662Z,8.91
2023-03-16T11:25:41.475Z,9.77
2023-03-16T11:28:13.186Z,9.18
2023-03-16T11:30:39.560Z,9.33
2023-03-16T11:33:06.448Z,9.14
2023-03-16T11:35:32.788Z,9.37
2023-03-16T11:37:59.307Z,9.29
2023-03-16T11:40:25.715Z,9.04
2023-03-16T11:42:52.599Z,9.36
2023-03-16T11:45:19.079Z,9.03
2023-03-16T11:47:45.678Z,9.16
2023-03-16T11:50:12.034Z,9.34
2023-03-16T11:52:38.715Z,9.58
2023-03-16T11:55:05.029Z,9.18
2023-03-16T11:57:33.050Z,8.79
2023-03-16T12:00:01.428Z,9.24
2023-03-16T12:02:28.516Z,9.65
2023-03-16T12:04:55.311Z,9.63
2023-03-16T12:07:22.025Z,9.51
2023-03-16T12:09:51.040Z,9.05
2023-03-16T12:12:17.358Z,9.51
2023-03-16T12:14:44.262Z,9.56
2023-03-16T12:17:10.992Z,8.81
2023-03-16T12:19:37.356Z,8.96
2023-03-16T12:22:04.310Z,9.26
2023-03-16T12:24:30.684Z,9.18
2023-03-16T12:26:57.505Z,9.38
2023-03-16T12:29:23.858Z,9.65
2023-03-16T12:31:50.297Z,9.78
2023-03-16T12:34:17.515Z,9.85
2023-03-16T12:36:44.670Z,9.84
2023-03-16T12:39:12.043Z,9.53
2023-03-16T12:41:38.426Z,9.59
2023-03-16T12:44:04.789Z,9.68
2023-03-16T12:46:31.420Z,9.97
2023-03-16T12:48:57.753Z,9.66
2023-03-16T12:51:24.080Z,9.98
2023-03-16T12:53:50.400Z,9.97
2023-03-16T12:56:17.665Z,9.71
2023-03-16T12:58:45.545Z,9.29
2023-03-16T13:01:11.940Z,9.54
2023-03-16T13:03:38.333Z,9.57
2023-03-16T13:06:04.688Z,9.32
2023-03-16T13:08:31.011Z,9.38
2023-03-16T13:10:57.450Z,9.07
2023-03-16T13:13:25.694Z,9.41
2023-03-16T13:15:59.880Z,8.92
2023-03-16T13:18:26.231Z,9.41
2023-03-16T13:20:52.578Z,9.48
2023-03-16T13:23:18.898Z,9.31
2023-03-16T13:25:45.600Z,9.44
2023-03-16T13:28:12.097Z,9.33
2023-03-16T13:30:38.659Z,9.35
2023-03-16T13:33:05.046Z,9.37
2023-03-16T13:35:31.866Z,9.33
2023-03-16T13:37:58.523Z,9.21
2023-03-16T13:40:24.900Z,9.20
2023-03-16T13:42:53.137Z,9.06
2023-03-16T13:45:19.541Z,8.99
2023-03-16T13:47:46.116Z,9.03
2023-03-16T13:50:12.462Z,9.09
2023-03-16T13:52:39.200Z,9.10
2023-03-16T13:55:05.565Z,9.28
2023-03-16T13:57:31.938Z,9.37
2023-03-16T13:59:59.345Z,9.22
2023-03-16T14:02:25.805Z,9.27
2023-03-16T14:04:52.213Z,9.31
2023-03-16T14:07:18.665Z,9.45
2023-03-16T14:09:49.961Z,9.32
2023-03-16T14:12:16.331Z,9.35
2023-03-16T14:14:42.668Z,9.45
2023-03-16T14:17:08.988Z,9.32
2023-03-16T14:19:42.400Z,9.09
2023-03-16T14:22:09.467Z,9.06
2023-03-16T14:24:35.840Z,8.84
2023-03-16T14:27:02.508Z,9.15
2023-03-16T14:29:30.354Z,8.92
2023-03-16T14:31:56.795Z,9.03
2023-03-16T14:34:23.170Z,8.88
2023-03-16T14:36:49.512Z,9.12
2023-03-16T14:39:17.389Z,9.04
2023-03-16T14:41:43.752Z,9.03
2023-03-16T14:44:10.422Z,9.17
2023-03-16T14:46:36.778Z,9.11
2023-03-16T14:49:03.725Z,8.83
2023-03-16T14:51:30.419Z,8.90
2023-03-16T14:53:56.966Z,9.21
2023-03-16T14:56:23.482Z,9.00
2023-03-16T14:58:49.846Z,8.90
2023-03-16T15:01:16.215Z,8.87
2023-03-16T15:03:43.520Z,8.75
2023-03-16T15:06:10.063Z,8.76
2023-03-16T15:08:42.248Z,8.81
2023-03-16T15:11:08.669Z,8.92
2023-03-16T15:13:42.441Z,8.97
2023-03-16T15:16:08.945Z,8.75
2023-03-16T15:18:35.295Z,8.72
2023-03-16T15:21:02.280Z,8.68
2023-03-16T15:23:28.600Z,8.80
2023-03-16T15:26:00.153Z,8.87
2023-03-16T15:28:26.506Z,8.69
2023-03-16T15:30:52.911Z,8.74
2023-03-16T15:33:19.297Z,8.66
2023-03-16T15:35:45.683Z,8.72
2023-03-16T15:38:11.999Z,8.83
2023-03-16T15:40:38.329Z,8.76
2023-03-16T15:43:05.214Z,8.53
2023-03-16T15:45:31.557Z,8.60
2023-03-16T15:47:58.306Z,8.41
2023-03-16T15:50:24.998Z,8.35
2023-03-16T15:52:51.421Z,8.30
2023-03-16T15:55:17.753Z,8.40
2023-03-16T15:57:45.648Z,8.29
2023-03-16T16:00:12.235Z,8.35
2023-03-16T16:02:38.575Z,8.31
2023-03-16T16:05:04.882Z,8.30
2023-03-16T16:07:31.555Z,8.11
2023-03-16T16:09:57.888Z,8.14
2023-03-16T16:12:27.099Z,7.87
2023-03-16T16:14:53.524Z,7.93
2023-03-16T16:17:36.420Z,7.79
2023-03-16T16:20:07.461Z,7.78
2023-03-16T16:22:34.036Z,7.66
2023-03-16T16:25:00.683Z,7.59
2023-03-16T16:27:27.116Z,7.52
2023-03-16T16:29:53.451Z,7.46
2023-03-16T16:32:19.773Z,7.40
2023-03-16T16:35:01.801Z,7.34
2023-03-16T16:37:30.446Z,7.31
2023-03-16T16:39:57.052Z,7.23
2023-03-16T16:42:23.417Z,7.21
2023-03-16T16:44:49.730Z,7.14
2023-03-16T16:47:16.133Z,7.25
2023-03-16T16:49:42.636Z,7.14
2023-03-16T16:52:09.784Z,7.05
2023-03-16T16:54:37.060Z,7.10
2023-03-16T16:57:03.393Z,7.08
2023-03-16T16:59:29.746Z,6.95
2023-03-16T17:01:56.729Z,6.85
2023-03-16T17:04:24.641Z,6.74
2023-03-16T17:06:52.407Z,6.76
2023-03-16T17:09:18.779Z,6.76
2023-03-16T17:11:45.115Z,6.71
2023-03-16T17:14:11.520Z,6.72
2023-03-16T17:16:38.145Z,6.63
2023-03-16T17:19:04.553Z,6.58
2023-03-16T17:21:31.365Z,6.50
2023-03-16T17:23:57.687Z,6.42
2023-03-16T17:26:24.213Z,6.46
2023-03-16T17:28:50.789Z,6.43
2023-03-16T17:31:17.583Z,6.40
2023-03-16T17:33:43.907Z,6.28
2023-03-16T17:36:10.296Z,6.33
2023-03-16T17:38:37.400Z,6.24
2023-03-16T17:41:03.745Z,6.18
2023-03-16T17:43:31.893Z,6.20
2023-03-16T17:45:58.308Z,6.14
2023-03-16T17:48:25.231Z,6.11
2023-03-16T17:50:52.051Z,6.08
2023-03-16T17:53:18.424Z,6.05
2023-03-16T17:55:45.457Z,6.04
2023-03-16T17:58:12.291Z,5.99
2023-03-16T18:00:39.587Z,5.96
2023-03-16T18:03:06.103Z,5.89
2023-03-16T18:05:32.714Z,5.93
2023-03-16T18:07:59.190Z,5.86
2023-03-16T18:10:25.568Z,5.71
2023-03-16T18:12:51.939Z,5.70
2023-03-16T18:15:21.364Z,5.72
2023-03-16T18:17:48.506Z,5.74
2023-03-16T18:20:16.706Z,5.74
2023-03-16T18:22:43.992Z,5.72
2023-03-16T18:25:10.490Z,5.73
2023-03-16T18:27:40.719Z,5.69
2023-03-16T18:30:08.685Z,5.64
2023-03-16T18:32:35.148Z,5.68
2023-03-16T18:35:03.883Z,5.58
2023-03-16T18:37:30.466Z,5.63
2023-03-16T18:39:56.794Z,5.67
2023-03-16T18:42:23.263Z,5.64
2023-03-16T18:44:49.595Z,5.67
2023-03-16T18:47:16.747Z,5.66
2023-03-16T18:49:47.216Z,5.74
2023-03-16T18:52:13.765Z,5.71
2023-03-16T18:54:40.198Z,5.68
2023-03-16T18:57:06.532Z,5.73
2023-03-16T18:59:32.864Z,5.77
2023-03-16T19:01:59.247Z,5.78
2023-03-16T19:04:25.625Z,5.75
2023-03-16T19:06:53.516Z,5.72
2023-03-16T19:09:19.883Z,5.70
2023-03-16T19:11:46.267Z,5.70
2023-03-16T19:14:13.609Z,5.75
2023-03-16T19:16:39.979Z,5.71
2023-03-16T19:19:07.168Z,5.78
2023-03-16T19:21:34.196Z,5.80
2023-03-16T19:24:00.915Z,5.75
2023-03-16T19:26:27.495Z,5.75
2023-03-16T19:28:53.945Z,5.71
2023-03-16T19:31:20.476Z,5.70
2023-03-16T19:33:46.933Z,5.61
2023-03-16T19:36:13.254Z,5.63
2023-03-16T19:38:39.571Z,5.54
2023-03-16T19:41:06.088Z,5.59
2023-03-16T19:43:32.397Z,5.56
2023-03-16T19:45:58.890Z,5.51
2023-03-16T19:48:25.269Z,5.46
2023-03-16T19:50:52.117Z,5.45
2023-03-16T19:53:18.499Z,5.28
2023-03-16T19:55:44.850Z,5.33
2023-03-16T19:58:11.186Z,5.21
2023-03-16T20:00:37.683Z,5.25
2023-03-16T20:03:04.018Z,5.25
2023-03-16T20:05:31.026Z,5.21
2023-03-16T20:07:57.728Z,5.22
2023-03-16T20:10:24.178Z,5.25
2023-03-16T20:12:50.683Z,5.14
2023-03-16T20:15:17.330Z,5.04
2023-03-16T20:17:44.220Z,5.07
2023-03-16T20:20:10.539Z,5.03
2023-03-16T20:22:36.917Z,5.07
2023-03-16T20:25:05.390Z,5.03
2023-03-16T20:27:31.711Z,5.05
2023-03-16T20:29:58.087Z,4.94
2023-03-16T20:32:24.646Z,5.10
2023-03-16T20:34:51.539Z,5.18
2023-03-16T20:37:17.891Z,5.06
2023-03-16T20:39:45.231Z,5.10
2023-03-16T20:42:11.566Z,5.11
2023-03-16T20:44:38.805Z,5.08
2023-03-16T20:47:05.180Z,5.02
2023-03-16T20:49:32.449Z,5.04
2023-03-16T20:51:58.806Z,4.99
2023-03-16T20:54:25.196Z,5.05
2023-03-16T20:56:51.749Z,4.99
2023-03-16T20:59:20.174Z,5.00
2023-03-16T21:01:47.077Z,4.91
2023-03-16T21:04:13.553Z,4.96
2023-03-16T21:06:40.080Z,4.96
2023-03-16T21:09:06.513Z,4.89
2023-03-16T21:11:32.831Z,4.94
2023-03-16T21:13:59.141Z,4.87
2023-03-16T21:16:25.519Z,4.97
2023-03-16T21:18:51.876Z,4.87
2023-03-16T21:21:18.271Z,4.80
2023-03-16T21:23:44.592Z,4.83
2023-03-16T21:26:10.935Z,4.84
2023-03-16T21:28:37.684Z,4.84
2023-03-16T21:31:04.046Z,4.84
2023-03-16T21:33:30.570Z,4.76
2023-03-16T21:35:57.004Z,4.80
2023-03-16T21:38:26.564Z,4.80
2023-03-16T21:40:52.932Z,4.76
2023-03-16T21:43:19.284Z,4.76
2023-03-16T21:45:46.103Z,4.70
2023-03-16T21:48:12.507Z,4.68
2023-03-16T21:50:38.948Z,4.67
2023-03-16T21:53:05.261Z,4.64
2023-03-16T21:55:31.972Z,4.60
2023-03-16T21:57:58.734Z,4.58
2023-03-16T22:00:25.774Z,4.51
2023-03-16T22:02:52.286Z,4.53
2023-03-16T22:05:18.685Z,4.51
2023-03-16T22:07:44.980Z,4.44
2023-03-16T22:10:11.540Z,4.47
2023-03-16T22:12:37.869Z,4.48
2023-03-16T22:15:04.593Z,4.46
2023-03-16T22:17:33.329Z,4.45
2023-03-16T22:19:59.638Z,4.45
2023-03-16T22:22:26.297Z,4.44
2023-03-16T22:24:53.055Z,4.36
2023-03-16T22:27:19.439Z,4.39
2023-03-16T22:29:45.830Z,4.41
2023-03-16T22:32:12.471Z,4.41
2023-03-16T22:34:38.823Z,4.31
2023-03-16T22:37:05.740Z,4.30
2023-03-16T22:39:32.046Z,4.31
2023-03-16T22:41:58.392Z,4.37
2023-03-16T22:44:25.000Z,4.38
2023-03-16T22:46:51.562Z,4.44
2023-03-16T22:49:17.871Z,4.42
2023-03-16T22:51:44.176Z,4.41
2023-03-16T22:54:10.873Z,4.35
2023-03-16T22:56:37.405Z,4.30
2023-03-16T22:59:03.766Z,4.35
2023-03-16T23:01:30.195Z,4.23
2023-03-16T23:03:56.623Z,4.22
2023-03-16T23:06:23.004Z,4.33
2023-03-16T23:08:49.327Z,4.31
2023-03-16T23:11:16.829Z,4.33
2023-03-16T23:13:43.173Z,4.31
2023-03-16T23:16:09.503Z,4.35
2023-03-16T23:18:36.531Z,4.40
2023-03-16T23:21:02.893Z,4.42
2023-03-16T23:23:29.230Z,4.45
2023-03-16T23:25:55.596Z,4.37
2023-03-16T23:28:21.975Z,4.47
2023-03-16T23:30:48.390Z,4.46
2023-03-16T23:33:14.767Z,4.36
2023-03-16T23:35:41.534Z,4.48
2023-03-16T23:38:08.394Z,4.63
2023-03-16T23:40:35.034Z,4.58
2023-03-16T23:43:02.194Z,4.58
2023-03-16T23:45:28.523Z,4.57
2023-03-16T23:47:54.868Z,4.55
2023-03-16T23:50:21.188Z,4.53
2023-03-16T23:52:47.499Z,4.53
2023-03-16T23:55:14.391Z,4.43
2023-03-16T23:57:41.063Z,4.55
